Terminal Aerodrome Forecast
Issued by NWS

Home | Current Version | Previous Version | Text Only | Print | Product List | Glossary On
Versions: 1 2 3 4 5 6 7 8 9 10 11 12 13 14 15 16 17 18 19 20 21 22 23 24
000
FTAK31 PAFA 262326
TAFABT
TAF
PABT 262326Z 2700/2724 VRB05KT P6SM SCT050 SCT240
     FM270200 VRB05KT P6SM VCTS SCT050CB BKN090
     FM270600 VRB03KT P6SM BKN100=

USA.gov is the U.S. government's official web portal to all federal, state and local government web resources and services.